createdAt,value
2023-01-28T00:00:05.185Z,1023.69
2023-01-28T00:00:19.194Z,1023.69
2023-01-28T00:00:33.182Z,1023.68
2023-01-28T00:00:47.168Z,1023.68
2023-01-28T00:01:01.160Z,1023.68
2023-01-28T00:01:29.124Z,1023.67
2023-01-28T00:01:43.117Z,1023.67
2023-01-28T00:01:57.144Z,1023.67
2023-01-28T00:02:11.133Z,1023.66
2023-01-28T00:02:25.126Z,1023.66
2023-01-28T00:02:39.150Z,1023.66
2023-01-28T00:02:53.231Z,1023.66
2023-01-28T00:03:07.256Z,1023.66
2023-01-28T00:03:21.265Z,1023.65
2023-01-28T00:03:35.336Z,1023.65
2023-01-28T00:03:49.361Z,1023.65
2023-01-28T00:04:03.389Z,1023.65
2023-01-28T00:04:17.392Z,1023.64
2023-01-28T00:04:31.391Z,1023.64
2023-01-28T00:04:59.347Z,1023.64
2023-01-28T00:05:13.700Z,1023.63
2023-01-28T00:05:27.863Z,1023.63
2023-01-28T00:05:41.854Z,1023.63
2023-01-28T00:05:56.365Z,1023.63
2023-01-28T00:06:10.364Z,1023.63
2023-01-28T00:06:24.358Z,1023.63
2023-01-28T00:06:38.343Z,1023.63
2023-01-28T00:06:52.387Z,1023.63
2023-01-28T00:07:06.387Z,1023.63
2023-01-28T00:07:20.396Z,1023.62
2023-01-28T00:07:34.379Z,1023.62
2023-01-28T00:07:48.371Z,1023.62
2023-01-28T00:08:02.350Z,1023.63
2023-01-28T00:08:16.347Z,1023.63
2023-01-28T00:08:30.335Z,1023.63
2023-01-28T00:08:44.365Z,1023.63
2023-01-28T00:08:58.358Z,1023.64
2023-01-28T00:09:12.359Z,1023.63
2023-01-28T00:09:26.340Z,1023.64
2023-01-28T00:09:40.331Z,1023.64
2023-01-28T00:10:08.435Z,1023.64
2023-01-28T00:10:22.414Z,1023.64
2023-01-28T00:10:36.407Z,1023.64
2023-01-28T00:10:50.412Z,1023.64
2023-01-28T00:11:04.401Z,1023.64
2023-01-28T00:11:18.380Z,1023.64
2023-01-28T00:11:32.361Z,1023.64
2023-01-28T00:11:46.369Z,1023.64
2023-01-28T00:12:00.375Z,1023.64
2023-01-28T00:12:14.395Z,1023.64
2023-01-28T00:12:28.386Z,1023.64
2023-01-28T00:12:42.373Z,1023.64
2023-01-28T00:12:56.366Z,1023.63
2023-01-28T00:13:10.359Z,1023.64
2023-01-28T00:13:24.364Z,1023.64
2023-01-28T00:13:38.381Z,1023.63
2023-01-28T00:13:52.368Z,1023.63
2023-01-28T00:14:06.360Z,1023.63
2023-01-28T00:14:20.344Z,1023.62
2023-01-28T00:14:48.321Z,1023.62
2023-01-28T00:15:02.304Z,1023.61
2023-01-28T00:15:16.546Z,1023.61
2023-01-28T00:15:30.614Z,1023.62
2023-01-28T00:15:44.638Z,1023.62
2023-01-28T00:15:58.729Z,1023.62
2023-01-28T00:16:12.853Z,1023.62
2023-01-28T00:16:27.053Z,1023.62
2023-01-28T00:16:41.215Z,1023.63
2023-01-28T00:16:55.229Z,1023.62
2023-01-28T00:17:09.210Z,1023.63
2023-01-28T00:17:23.198Z,1023.63
2023-01-28T00:17:37.187Z,1023.63
2023-01-28T00:17:51.190Z,1023.62
2023-01-28T00:18:05.172Z,1023.63
2023-01-28T00:18:19.168Z,1023.63
2023-01-28T00:18:33.225Z,1023.62
2023-01-28T00:18:47.238Z,1023.63
2023-01-28T00:19:01.228Z,1023.63
2023-01-28T00:19:29.197Z,1023.62
2023-01-28T00:19:43.187Z,1023.62
2023-01-28T00:19:57.184Z,1023.61
2023-01-28T00:20:11.184Z,1023.61
2023-01-28T00:20:25.159Z,1023.61
2023-01-28T00:20:39.160Z,1023.60
2023-01-28T00:20:53.144Z,1023.60
2023-01-28T00:21:07.151Z,1023.60
2023-01-28T00:21:21.133Z,1023.59
2023-01-28T00:21:35.136Z,1023.58
2023-01-28T00:21:49.135Z,1023.58
2023-01-28T00:22:03.174Z,1023.58
2023-01-28T00:22:17.167Z,1023.57
2023-01-28T00:22:31.139Z,1023.57
2023-01-28T00:22:45.135Z,1023.56
2023-01-28T00:22:59.138Z,1023.56
2023-01-28T00:23:13.115Z,1023.56
2023-01-28T00:23:27.092Z,1023.56
2023-01-28T00:23:41.081Z,1023.56
2023-01-28T00:24:09.109Z,1023.56
2023-01-28T00:24:23.183Z,1023.56
2023-01-28T00:24:37.228Z,1023.57
2023-01-28T00:24:51.215Z,1023.57
2023-01-28T00:25:05.256Z,1023.57
2023-01-28T00:25:19.249Z,1023.57
2023-01-28T00:25:33.233Z,1023.57
2023-01-28T00:25:47.225Z,1023.57
2023-01-28T00:26:01.302Z,1023.57
2023-01-28T00:26:15.296Z,1023.56
2023-01-28T00:26:29.296Z,1023.57
2023-01-28T00:26:43.295Z,1023.57
2023-01-28T00:26:57.279Z,1023.56
2023-01-28T00:27:11.275Z,1023.56
2023-01-28T00:27:39.261Z,1023.57
2023-01-28T00:27:53.262Z,1023.57
2023-01-28T00:28:07.255Z,1023.58
2023-01-28T00:28:21.244Z,1023.58
2023-01-28T00:28:35.227Z,1023.58
2023-01-28T00:28:49.212Z,1023.58
2023-01-28T00:29:03.192Z,1023.58
2023-01-28T00:29:17.188Z,1023.58
2023-01-28T00:29:31.190Z,1023.59
2023-01-28T00:29:45.199Z,1023.59
2023-01-28T00:29:59.188Z,1023.60
2023-01-28T00:30:13.168Z,1023.60
2023-01-28T00:30:27.172Z,1023.60
2023-01-28T00:30:41.178Z,1023.61
2023-01-28T00:30:55.219Z,1023.61
2023-01-28T00:31:09.316Z,1023.61
2023-01-28T00:31:23.395Z,1023.61
2023-01-28T00:31:37.422Z,1023.61
2023-01-28T00:31:51.514Z,1023.61
2023-01-28T00:32:19.533Z,1023.61
2023-01-28T00:32:33.521Z,1023.61
2023-01-28T00:32:47.520Z,1023.61
2023-01-28T00:33:01.521Z,1023.62
2023-01-28T00:33:15.547Z,1023.62
2023-01-28T00:33:29.531Z,1023.62
2023-01-28T00:33:43.525Z,1023.62
2023-01-28T00:33:57.512Z,1023.62
2023-01-28T00:34:11.500Z,1023.62
2023-01-28T00:34:25.480Z,1023.62
2023-01-28T00:34:39.461Z,1023.62
2023-01-28T00:34:53.438Z,1023.62
2023-01-28T00:35:07.448Z,1023.63
2023-01-28T00:35:21.419Z,1023.62
2023-01-28T00:35:35.411Z,1023.63
2023-01-28T00:35:49.388Z,1023.63
2023-01-28T00:36:03.378Z,1023.63
2023-01-28T00:36:17.353Z,1023.63
2023-01-28T00:36:31.355Z,1023.63
2023-01-28T00:36:59.311Z,1023.63
2023-01-28T00:37:13.289Z,1023.63
2023-01-28T00:37:27.276Z,1023.63
2023-01-28T00:37:41.277Z,1023.63
2023-01-28T00:37:55.277Z,1023.62
2023-01-28T00:38:09.267Z,1023.62
2023-01-28T00:38:23.260Z,1023.62
2023-01-28T00:38:37.274Z,1023.62
2023-01-28T00:38:51.273Z,1023.62
2023-01-28T00:39:05.265Z,1023.62
2023-01-28T00:39:19.254Z,1023.62
2023-01-28T00:39:33.230Z,1023.62
2023-01-28T00:39:47.222Z,1023.61
2023-01-28T00:40:01.212Z,1023.61
2023-01-28T00:40:15.207Z,1023.61
2023-01-28T00:40:29.195Z,1023.62
2023-01-28T00:40:43.183Z,1023.62
2023-01-28T00:40:57.238Z,1023.62
2023-01-28T00:41:11.239Z,1023.61
2023-01-28T00:41:39.224Z,1023.61
2023-01-28T00:41:53.219Z,1023.61
2023-01-28T00:42:07.203Z,1023.61
2023-01-28T00:42:21.195Z,1023.61
2023-01-28T00:42:35.188Z,1023.61
2023-01-28T00:42:49.185Z,1023.61
2023-01-28T00:43:03.181Z,1023.61
2023-01-28T00:43:17.165Z,1023.61
2023-01-28T00:43:31.143Z,1023.61
2023-01-28T00:43:45.157Z,1023.61
2023-01-28T00:43:59.162Z,1023.61
2023-01-28T00:44:13.161Z,1023.61
2023-01-28T00:44:27.152Z,1023.61
2023-01-28T00:44:41.172Z,1023.61
2023-01-28T00:44:55.157Z,1023.61
2023-01-28T00:45:09.139Z,1023.62
2023-01-28T00:45:23.122Z,1023.62
2023-01-28T00:45:37.156Z,1023.61
2023-01-28T00:45:51.321Z,1023.61
2023-01-28T00:46:05.382Z,1023.61
2023-01-28T00:46:19.431Z,1023.60
2023-01-28T00:46:33.433Z,1023.60
2023-01-28T00:46:47.426Z,1023.60
2023-01-28T00:47:01.422Z,1023.60
2023-01-28T00:47:15.413Z,1023.60
2023-01-28T00:47:29.388Z,1023.60
2023-01-28T00:47:43.387Z,1023.60
2023-01-28T00:47:57.375Z,1023.60
2023-01-28T00:48:11.387Z,1023.60
2023-01-28T00:48:25.364Z,1023.60
2023-01-28T00:48:39.373Z,1023.61
2023-01-28T00:48:53.405Z,1023.60
2023-01-28T00:49:07.409Z,1023.61
2023-01-28T00:49:21.383Z,1023.61
2023-01-28T00:49:49.341Z,1023.61
2023-01-28T00:50:03.359Z,1023.60
2023-01-28T00:50:17.353Z,1023.61
2023-01-28T00:50:31.373Z,1023.60
2023-01-28T00:50:45.363Z,1023.60
2023-01-28T00:50:59.346Z,1023.61
2023-01-28T00:51:13.334Z,1023.60
2023-01-28T00:51:27.316Z,1023.60
2023-01-28T00:51:41.304Z,1023.60
2023-01-28T00:51:55.306Z,1023.59
2023-01-28T00:52:09.294Z,1023.59
2023-01-28T00:52:23.293Z,1023.59
2023-01-28T00:52:37.278Z,1023.58
2023-01-28T00:52:51.279Z,1023.58
2023-01-28T00:53:05.263Z,1023.58
2023-01-28T00:53:19.262Z,1023.58
2023-01-28T00:53:33.248Z,1023.57
2023-01-28T00:53:47.236Z,1023.57
2023-01-28T00:54:01.234Z,1023.57
2023-01-28T00:54:29.224Z,1023.56
2023-01-28T00:54:43.223Z,1023.56
2023-01-28T00:54:57.238Z,1023.55
2023-01-28T00:55:11.246Z,1023.55
2023-01-28T00:55:25.272Z,1023.55
2023-01-28T00:55:39.294Z,1023.55
2023-01-28T00:55:53.408Z,1023.54
2023-01-28T00:56:07.425Z,1023.54
2023-01-28T00:56:21.445Z,1023.55
2023-01-28T00:56:35.452Z,1023.55
2023-01-28T00:56:49.452Z,1023.55
2023-01-28T00:57:03.452Z,1023.56
2023-01-28T00:57:17.440Z,1023.56
2023-01-28T00:57:31.438Z,1023.57
2023-01-28T00:57:45.426Z,1023.57
2023-01-28T00:57:59.415Z,1023.58
2023-01-28T00:58:13.419Z,1023.58
2023-01-28T00:58:27.400Z,1023.59
2023-01-28T00:58:41.385Z,1023.59
2023-01-28T00:59:09.376Z,1023.60
2023-01-28T00:59:23.374Z,1023.60
2023-01-28T00:59:37.378Z,1023.60
2023-01-28T00:59:51.411Z,1023.60
2023-01-28T01:00:05.399Z,1023.60
2023-01-28T01:00:19.388Z,1023.60
2023-01-28T01:00:33.374Z,1023.60
2023-01-28T01:00:47.372Z,1023.61
2023-01-28T01:01:01.372Z,1023.61
2023-01-28T01:01:15.419Z,1023.61
2023-01-28T01:01:29.502Z,1023.61
2023-01-28T01:01:43.577Z,1023.62
2023-01-28T01:01:57.576Z,1023.62
2023-01-28T01:02:11.683Z,1023.62
2023-01-28T01:02:25.746Z,1023.63
2023-01-28T01:02:41.984Z,1023.63
2023-01-28T01:02:53.591Z,1023.64
2023-01-28T01:03:07.593Z,1023.65
2023-01-28T01:03:21.584Z,1023.66
2023-01-28T01:03:49.563Z,1023.67
2023-01-28T01:04:03.550Z,1023.67
2023-01-28T01:04:17.546Z,1023.67
2023-01-28T01:04:31.535Z,1023.67
2023-01-28T01:04:45.508Z,1023.67
2023-01-28T01:04:59.517Z,1023.68
2023-01-28T01:05:13.876Z,1023.67
2023-01-28T01:05:28.081Z,1023.67
2023-01-28T01:05:42.072Z,1023.67
2023-01-28T01:05:56.066Z,1023.67
2023-01-28T01:06:10.071Z,1023.67
2023-01-28T01:06:24.061Z,1023.67
2023-01-28T01:06:38.037Z,1023.66
2023-01-28T01:06:52.044Z,1023.66
2023-01-28T01:07:06.025Z,1023.66
2023-01-28T01:07:20.040Z,1023.67
2023-01-28T01:07:34.016Z,1023.66
2023-01-28T01:07:48.016Z,1023.66
2023-01-28T01:08:02.000Z,1023.66
2023-01-28T01:08:15.988Z,1023.66
2023-01-28T01:08:29.964Z,1023.66
2023-01-28T01:08:43.949Z,1023.66
2023-01-28T01:08:57.923Z,1023.67
2023-01-28T01:09:11.956Z,1023.67
2023-01-28T01:09:25.959Z,1023.67
2023-01-28T01:09:39.961Z,1023.67
2023-01-28T01:09:53.944Z,1023.67
2023-01-28T01:10:07.933Z,1023.68
2023-01-28T01:10:21.914Z,1023.68
2023-01-28T01:10:35.903Z,1023.68
2023-01-28T01:10:49.884Z,1023.69
2023-01-28T01:11:03.875Z,1023.69
2023-01-28T01:11:17.862Z,1023.69
2023-01-28T01:11:31.888Z,1023.70
2023-01-28T01:11:59.837Z,1023.70
2023-01-28T01:12:13.841Z,1023.71
2023-01-28T01:12:27.832Z,1023.71
2023-01-28T01:12:41.807Z,1023.71
2023-01-28T01:12:55.802Z,1023.71
2023-01-28T01:13:09.793Z,1023.72
2023-01-28T01:13:23.769Z,1023.72
2023-01-28T01:13:37.756Z,1023.72
2023-01-28T01:13:51.777Z,1023.72
2023-01-28T01:14:05.770Z,1023.72
2023-01-28T01:14:19.757Z,1023.72
2023-01-28T01:14:33.752Z,1023.72
2023-01-28T01:14:47.743Z,1023.72
2023-01-28T01:15:01.732Z,1023.72
2023-01-28T01:15:16.136Z,1023.72
2023-01-28T01:15:30.418Z,1023.71
2023-01-28T01:15:44.451Z,1023.71
2023-01-28T01:15:58.523Z,1023.72
2023-01-28T01:16:12.613Z,1023.71
2023-01-28T01:16:26.643Z,1023.71
2023-01-28T01:16:40.624Z,1023.71
2023-01-28T01:17:08.576Z,1023.73
2023-01-28T01:17:22.558Z,1023.73
2023-01-28T01:17:36.545Z,1023.74
2023-01-28T01:17:50.540Z,1023.74
2023-01-28T01:18:04.549Z,1023.75
2023-01-28T01:18:18.545Z,1023.75
2023-01-28T01:18:32.535Z,1023.75
2023-01-28T01:18:46.528Z,1023.75
2023-01-28T01:19:00.520Z,1023.75
2023-01-28T01:19:14.520Z,1023.76
2023-01-28T01:19:28.504Z,1023.76
2023-01-28T01:19:42.492Z,1023.76
2023-01-28T01:19:56.485Z,1023.76
2023-01-28T01:20:10.471Z,1023.76
2023-01-28T01:20:24.464Z,1023.76
2023-01-28T01:20:38.444Z,1023.76
2023-01-28T01:20:53.135Z,1023.76
2023-01-28T01:21:07.135Z,1023.75
2023-01-28T01:21:21.124Z,1023.75
2023-01-28T01:21:49.077Z,1023.75
2023-01-28T01:22:03.075Z,1023.74
2023-01-28T01:22:17.061Z,1023.75
2023-01-28T01:22:31.041Z,1023.75
2023-01-28T01:22:45.034Z,1023.74
2023-01-28T01:22:59.046Z,1023.74
2023-01-28T01:23:13.023Z,1023.74
2023-01-28T01:23:27.045Z,1023.74
2023-01-28T01:23:41.033Z,1023.74
2023-01-28T01:23:55.073Z,1023.74
2023-01-28T01:24:09.106Z,1023.74
2023-01-28T01:24:23.130Z,1023.74
2023-01-28T01:24:37.166Z,1023.75
2023-01-28T01:24:51.170Z,1023.74
2023-01-28T01:25:05.149Z,1023.75
2023-01-28T01:25:19.144Z,1023.75
2023-01-28T01:25:33.121Z,1023.75
2023-01-28T01:25:47.119Z,1023.74
2023-01-28T01:26:01.103Z,1023.75
2023-01-28T01:26:29.052Z,1023.75
2023-01-28T01:26:43.083Z,1023.74
2023-01-28T01:26:57.062Z,1023.74
2023-01-28T01:27:11.051Z,1023.74
2023-01-28T01:27:25.035Z,1023.74
2023-01-28T01:27:39.033Z,1023.74
2023-01-28T01:27:53.028Z,1023.74
2023-01-28T01:28:07.010Z,1023.74
2023-01-28T01:28:20.998Z,1023.73
2023-01-28T01:28:34.991Z,1023.72
2023-01-28T01:28:48.991Z,1023.71
2023-01-28T01:29:02.993Z,1023.71
2023-01-28T01:29:16.977Z,1023.70
2023-01-28T01:29:30.986Z,1023.70
2023-01-28T01:29:44.977Z,1023.70
2023-01-28T01:29:58.981Z,1023.70
2023-01-28T01:30:12.958Z,1023.70
2023-01-28T01:30:26.963Z,1023.70
2023-01-28T01:30:40.972Z,1023.70
2023-01-28T01:30:55.053Z,1023.71
2023-01-28T01:31:09.118Z,1023.71
2023-01-28T01:31:23.231Z,1023.72
2023-01-28T01:31:37.364Z,1023.72
2023-01-28T01:31:51.449Z,1023.72
2023-01-28T01:32:05.443Z,1023.73
2023-01-28T01:32:19.429Z,1023.73
2023-01-28T01:32:33.423Z,1023.74
2023-01-28T01:32:47.425Z,1023.74
2023-01-28T01:33:01.416Z,1023.75
2023-01-28T01:33:15.409Z,1023.75
2023-01-28T01:33:29.386Z,1023.75
2023-01-28T01:33:43.403Z,1023.75
2023-01-28T01:33:57.378Z,1023.75
2023-01-28T01:34:11.384Z,1023.76
2023-01-28T01:34:39.319Z,1023.76
2023-01-28T01:34:53.299Z,1023.76
2023-01-28T01:35:07.301Z,1023.75
2023-01-28T01:35:21.293Z,1023.76
2023-01-28T01:35:35.295Z,1023.76
2023-01-28T01:35:49.407Z,1023.76
2023-01-28T01:36:03.415Z,1023.75
2023-01-28T01:36:17.397Z,1023.76
2023-01-28T01:36:31.388Z,1023.76
2023-01-28T01:36:45.374Z,1023.75
2023-01-28T01:36:59.361Z,1023.75
2023-01-28T01:37:13.334Z,1023.74
2023-01-28T01:37:27.321Z,1023.75
2023-01-28T01:37:41.296Z,1023.75
2023-01-28T01:37:55.293Z,1023.76
2023-01-28T01:38:09.282Z,1023.76
2023-01-28T01:38:23.292Z,1023.76
2023-01-28T01:38:37.278Z,1023.76
2023-01-28T01:38:51.272Z,1023.76
2023-01-28T01:39:19.221Z,1023.78
2023-01-28T01:39:33.289Z,1023.78
2023-01-28T01:39:47.792Z,1023.79
2023-01-28T01:40:01.823Z,1023.80
2023-01-28T01:40:15.806Z,1023.80
2023-01-28T01:40:29.799Z,1023.81
2023-01-28T01:40:43.786Z,1023.81
2023-01-28T01:40:57.775Z,1023.82
2023-01-28T01:41:11.780Z,1023.82
2023-01-28T01:41:25.785Z,1023.82
2023-01-28T01:41:39.766Z,1023.82
2023-01-28T01:41:53.790Z,1023.82
2023-01-28T01:42:07.763Z,1023.83
2023-01-28T01:42:21.817Z,1023.83
2023-01-28T01:42:35.800Z,1023.83
2023-01-28T01:42:49.814Z,1023.83
2023-01-28T01:43:03.793Z,1023.83
2023-01-28T01:43:17.780Z,1023.83
2023-01-28T01:43:31.765Z,1023.83
2023-01-28T01:43:59.719Z,1023.84
2023-01-28T01:44:13.718Z,1023.84
2023-01-28T01:44:27.705Z,1023.85
2023-01-28T01:44:41.703Z,1023.85
2023-01-28T01:44:55.688Z,1023.86
2023-01-28T01:45:09.694Z,1023.87
2023-01-28T01:45:23.684Z,1023.88
2023-01-28T01:45:37.670Z,1023.88
2023-01-28T01:45:51.667Z,1023.88
2023-01-28T01:46:05.679Z,1023.88
2023-01-28T01:46:19.772Z,1023.89
2023-01-28T01:46:33.797Z,1023.89
2023-01-28T01:46:47.781Z,1023.90
2023-01-28T01:47:01.800Z,1023.90
2023-01-28T01:47:15.794Z,1023.91
2023-01-28T01:47:29.808Z,1023.91
2023-01-28T01:47:43.817Z,1023.91
2023-01-28T01:47:57.837Z,1023.91
2023-01-28T01:48:11.828Z,1023.91
2023-01-28T01:48:39.791Z,1023.91
2023-01-28T01:48:53.779Z,1023.91
2023-01-28T01:49:07.766Z,1023.91
2023-01-28T01:49:21.781Z,1023.91
2023-01-28T01:49:35.779Z,1023.91
2023-01-28T01:49:49.779Z,1023.91
2023-01-28T01:50:03.765Z,1023.91
2023-01-28T01:50:17.790Z,1023.91
2023-01-28T01:50:31.794Z,1023.91
2023-01-28T01:50:45.783Z,1023.92
2023-01-28T01:50:59.775Z,1023.91
2023-01-28T01:51:13.767Z,1023.92
2023-01-28T01:51:27.758Z,1023.92
2023-01-28T01:51:41.746Z,1023.92
2023-01-28T01:52:09.693Z,1023.92
2023-01-28T01:52:23.712Z,1023.92
2023-01-28T01:52:37.739Z,1023.92
2023-01-28T01:52:51.740Z,1023.93
2023-01-28T01:53:05.725Z,1023.93
2023-01-28T01:53:19.773Z,1023.93
2023-01-28T01:53:33.748Z,1023.94
2023-01-28T01:53:47.742Z,1023.94
2023-01-28T01:54:01.759Z,1023.94
2023-01-28T01:54:15.753Z,1023.95
2023-01-28T01:54:29.725Z,1023.96
2023-01-28T01:54:43.721Z,1023.97
2023-01-28T01:54:57.706Z,1023.97
2023-01-28T01:55:11.993Z,1023.97
2023-01-28T01:55:26.275Z,1023.98
2023-01-28T01:55:40.253Z,1023.98
2023-01-28T01:55:54.235Z,1023.99
2023-01-28T01:56:08.213Z,1023.99
2023-01-28T01:56:22.212Z,1023.99
2023-01-28T01:56:36.199Z,1023.99
2023-01-28T01:56:50.195Z,1023.99
2023-01-28T01:57:18.178Z,1023.99
2023-01-28T01:57:32.192Z,1023.99
2023-01-28T01:57:46.194Z,1023.99
2023-01-28T01:58:00.178Z,1023.99
2023-01-28T01:58:14.159Z,1023.99
2023-01-28T01:58:28.135Z,1023.99
2023-01-28T01:58:42.125Z,1023.99
2023-01-28T01:58:56.121Z,1023.99
2023-01-28T01:59:10.093Z,1023.99
2023-01-28T01:59:24.094Z,1024.00
2023-01-28T01:59:38.071Z,1024.00
2023-01-28T01:59:52.057Z,1024.00
2023-01-28T02:00:06.143Z,1023.99
2023-01-28T02:00:20.210Z,1023.99
2023-01-28T02:00:34.195Z,1023.99
2023-01-28T02:00:48.177Z,1023.98
2023-01-28T02:01:02.161Z,1023.98
2023-01-28T02:01:16.178Z,1023.97
2023-01-28T02:01:30.166Z,1023.96
2023-01-28T02:01:58.169Z,1023.95
2023-01-28T02:02:12.217Z,1023.95
2023-01-28T02:02:26.347Z,1023.94
2023-01-28T02:02:40.376Z,1023.94
2023-01-28T02:02:54.365Z,1023.93
2023-01-28T02:03:08.411Z,1023.93
2023-01-28T02:03:22.418Z,1023.93
2023-01-28T02:03:36.508Z,1023.92
2023-01-28T02:03:50.632Z,1023.92
2023-01-28T02:04:04.649Z,1023.91
2023-01-28T02:04:18.649Z,1023.91
2023-01-28T02:04:32.639Z,1023.91
2023-01-28T02:04:46.643Z,1023.91
2023-01-28T02:05:00.674Z,1023.91
2023-01-28T02:05:14.997Z,1023.91
2023-01-28T02:05:29.135Z,1023.91
2023-01-28T02:05:43.148Z,1023.91
2023-01-28T02:05:57.184Z,1023.91
2023-01-28T02:06:11.186Z,1023.91
2023-01-28T02:06:39.172Z,1023.91
2023-01-28T02:06:53.246Z,1023.90
2023-01-28T02:07:07.296Z,1023.90
2023-01-28T02:07:21.348Z,1023.90
2023-01-28T02:07:35.372Z,1023.90
2023-01-28T02:07:49.355Z,1023.89
2023-01-28T02:08:03.353Z,1023.89
2023-01-28T02:08:17.374Z,1023.88
2023-01-28T02:08:31.378Z,1023.88
2023-01-28T02:08:45.418Z,1023.88
2023-01-28T02:08:59.409Z,1023.88
2023-01-28T02:09:13.400Z,1023.88
2023-01-28T02:09:27.409Z,1023.88
2023-01-28T02:09:41.392Z,1023.88
2023-01-28T02:10:09.371Z,1023.88
2023-01-28T02:10:23.362Z,1023.88
2023-01-28T02:10:37.343Z,1023.88
2023-01-28T02:10:51.340Z,1023.88
2023-01-28T02:11:05.326Z,1023.87
2023-01-28T02:11:19.322Z,1023.87
2023-01-28T02:11:33.340Z,1023.87
2023-01-28T02:11:47.343Z,1023.87
2023-01-28T02:12:01.332Z,1023.88
2023-01-28T02:12:15.345Z,1023.87
2023-01-28T02:12:29.333Z,1023.87
2023-01-28T02:12:43.341Z,1023.87
2023-01-28T02:12:57.333Z,1023.87
2023-01-28T02:13:11.339Z,1023.87
2023-01-28T02:13:25.336Z,1023.88
2023-01-28T02:13:39.320Z,1023.88
2023-01-28T02:13:53.348Z,1023.89
2023-01-28T02:14:07.344Z,1023.89
2023-01-28T02:14:30.558Z,1023.89
2023-01-28T02:14:49.096Z,1023.89
2023-01-28T02:15:03.100Z,1023.89
2023-01-28T02:15:17.415Z,1023.89
2023-01-28T02:15:31.485Z,1023.89
2023-01-28T02:15:45.470Z,1023.89
2023-01-28T02:15:59.466Z,1023.89
2023-01-28T02:16:13.451Z,1023.89
2023-01-28T02:16:27.498Z,1023.89
2023-01-28T02:16:41.525Z,1023.89
2023-01-28T02:16:55.532Z,1023.90
2023-01-28T02:17:09.510Z,1023.90
2023-01-28T02:17:23.506Z,1023.91
2023-01-28T02:17:37.491Z,1023.91
2023-01-28T02:17:51.488Z,1023.91
2023-01-28T02:18:05.465Z,1023.91
2023-01-28T02:18:19.454Z,1023.91
2023-01-28T02:18:33.436Z,1023.91
2023-01-28T02:18:47.461Z,1023.91
2023-01-28T02:19:01.437Z,1023.91
2023-01-28T02:19:29.413Z,1023.92
2023-01-28T02:19:43.473Z,1023.91
2023-01-28T02:19:57.479Z,1023.91
2023-01-28T02:20:11.476Z,1023.91
2023-01-28T02:20:25.456Z,1023.91
2023-01-28T02:20:39.459Z,1023.91
2023-01-28T02:20:53.432Z,1023.91
2023-01-28T02:21:07.423Z,1023.91
2023-01-28T02:21:21.427Z,1023.91
2023-01-28T02:21:35.416Z,1023.91
2023-01-28T02:21:49.392Z,1023.91
2023-01-28T02:22:03.415Z,1023.91
2023-01-28T02:22:17.408Z,1023.91
2023-01-28T02:22:31.415Z,1023.91
2023-01-28T02:22:45.396Z,1023.91
2023-01-28T02:22:59.416Z,1023.91
2023-01-28T02:23:13.424Z,1023.91
2023-01-28T02:23:27.412Z,1023.92
2023-01-28T02:23:41.432Z,1023.92
2023-01-28T02:24:09.444Z,1023.92
2023-01-28T02:24:23.585Z,1023.92
2023-01-28T02:24:37.636Z,1023.92
2023-01-28T02:24:51.635Z,1023.93
2023-01-28T02:25:05.643Z,1023.93
2023-01-28T02:25:19.643Z,1023.94
2023-01-28T02:25:33.627Z,1023.93
2023-01-28T02:25:47.617Z,1023.94
2023-01-28T02:26:01.604Z,1023.95
2023-01-28T02:26:15.595Z,1023.95
2023-01-28T02:26:29.592Z,1023.95
2023-01-28T02:26:43.577Z,1023.95
2023-01-28T02:26:57.558Z,1023.96
2023-01-28T02:27:11.542Z,1023.96
2023-01-28T02:27:25.549Z,1023.96
2023-01-28T02:27:39.567Z,1023.96
2023-01-28T02:27:53.564Z,1023.96
2023-01-28T02:28:07.555Z,1023.97
2023-01-28T02:28:21.530Z,1023.97
2023-01-28T02:28:49.509Z,1023.97
2023-01-28T02:29:03.518Z,1023.97
2023-01-28T02:29:17.500Z,1023.97
2023-01-28T02:29:31.494Z,1023.98
2023-01-28T02:29:45.474Z,1023.98
2023-01-28T02:29:59.454Z,1023.99
2023-01-28T02:30:13.444Z,1023.99
2023-01-28T02:30:27.423Z,1023.99
2023-01-28T02:30:41.523Z,1023.99
2023-01-28T02:30:55.677Z,1023.99
2023-01-28T02:31:09.887Z,1023.99
2023-01-28T02:31:24.049Z,1023.99
2023-01-28T02:31:38.290Z,1023.99
2023-01-28T02:31:52.529Z,1023.99
2023-01-28T02:32:06.587Z,1024.00
2023-01-28T02:32:20.582Z,1024.00
2023-01-28T02:32:48.543Z,1024.00
2023-01-28T02:33:02.521Z,1024.01
2023-01-28T02:33:16.524Z,1024.01
2023-01-28T02:33:30.505Z,1024.01
2023-01-28T02:33:44.479Z,1024.01
2023-01-28T02:33:58.487Z,1024.01
2023-01-28T02:34:12.516Z,1024.01
2023-01-28T02:34:26.498Z,1024.01
2023-01-28T02:34:40.629Z,1024.01
2023-01-28T02:34:54.613Z,1024.01
2023-01-28T02:35:08.609Z,1024.01
2023-01-28T02:35:22.594Z,1024.01
2023-01-28T02:35:36.579Z,1024.02
2023-01-28T02:35:50.554Z,1024.02
2023-01-28T02:36:04.553Z,1024.02
2023-01-28T02:36:18.530Z,1024.02
2023-01-28T02:36:32.530Z,1024.01
2023-01-28T02:36:46.510Z,1024.02
2023-01-28T02:37:00.494Z,1024.03
2023-01-28T02:37:28.433Z,1024.03
2023-01-28T02:37:42.409Z,1024.03
2023-01-28T02:37:56.401Z,1024.03
2023-01-28T02:38:10.391Z,1024.04
2023-01-28T02:38:24.371Z,1024.04
2023-01-28T02:38:38.346Z,1024.04
2023-01-28T02:38:52.346Z,1024.05
2023-01-28T02:39:06.329Z,1024.06
2023-01-28T02:39:20.322Z,1024.06
2023-01-28T02:39:34.309Z,1024.07
2023-01-28T02:39:48.317Z,1024.07
2023-01-28T02:40:02.311Z,1024.08
2023-01-28T02:40:16.312Z,1024.08
2023-01-28T02:40:30.302Z,1024.08
2023-01-28T02:40:44.326Z,1024.09
2023-01-28T02:40:58.312Z,1024.09
2023-01-28T02:41:12.301Z,1024.09
2023-01-28T02:41:26.284Z,1024.09
2023-01-28T02:41:40.281Z,1024.09
2023-01-28T02:42:08.262Z,1024.09
2023-01-28T02:42:22.244Z,1024.09
2023-01-28T02:42:36.267Z,1024.09
2023-01-28T02:42:50.253Z,1024.09
2023-01-28T02:43:04.247Z,1024.09
2023-01-28T02:43:18.237Z,1024.09
2023-01-28T02:43:32.234Z,1024.09
2023-01-28T02:43:46.218Z,1024.09
2023-01-28T02:44:00.222Z,1024.09
2023-01-28T02:44:14.199Z,1024.09
2023-01-28T02:44:28.197Z,1024.09
2023-01-28T02:44:42.181Z,1024.09
2023-01-28T02:44:56.179Z,1024.09
2023-01-28T02:45:10.161Z,1024.09
2023-01-28T02:45:24.149Z,1024.09
2023-01-28T02:45:38.136Z,1024.09
2023-01-28T02:45:52.229Z,1024.09
2023-01-28T02:46:06.301Z,1024.10
2023-01-28T02:46:20.356Z,1024.09
2023-01-28T02:46:48.361Z,1024.10
2023-01-28T02:47:02.360Z,1024.10
2023-01-28T02:47:16.370Z,1024.10
2023-01-28T02:47:30.345Z,1024.10
2023-01-28T02:47:44.338Z,1024.10
2023-01-28T02:47:58.345Z,1024.11
2023-01-28T02:48:12.373Z,1024.11
2023-01-28T02:48:26.368Z,1024.11
2023-01-28T02:48:40.359Z,1024.11
2023-01-28T02:48:54.338Z,1024.11
2023-01-28T02:49:08.326Z,1024.11
2023-01-28T02:49:22.348Z,1024.11
2023-01-28T02:49:36.354Z,1024.11
2023-01-28T02:49:50.368Z,1024.11
2023-01-28T02:50:04.358Z,1024.11
2023-01-28T02:50:18.347Z,1024.11
2023-01-28T02:50:32.352Z,1024.11
2023-01-28T02:50:46.443Z,1024.11
2023-01-28T02:51:00.440Z,1024.11
2023-01-28T02:51:14.427Z,1024.11
2023-01-28T02:51:28.421Z,1024.11
2023-01-28T02:51:42.400Z,1024.11
2023-01-28T02:51:56.392Z,1024.11
2023-01-28T02:52:10.378Z,1024.11
2023-01-28T02:52:24.368Z,1024.12
2023-01-28T02:52:38.345Z,1024.11
2023-01-28T02:52:52.331Z,1024.11
2023-01-28T02:53:06.321Z,1024.11
2023-01-28T02:53:20.317Z,1024.11
2023-01-28T02:53:34.300Z,1024.11
2023-01-28T02:53:48.294Z,1024.11
2023-01-28T02:54:02.269Z,1024.10
2023-01-28T02:54:16.275Z,1024.10
2023-01-28T02:54:30.294Z,1024.10
2023-01-28T02:54:58.292Z,1024.09
2023-01-28T02:55:12.550Z,1024.10
2023-01-28T02:55:26.752Z,1024.10
2023-01-28T02:55:40.767Z,1024.09
2023-01-28T02:55:54.748Z,1024.09
2023-01-28T02:56:08.762Z,1024.09
2023-01-28T02:56:22.752Z,1024.09
2023-01-28T02:56:36.743Z,1024.09
2023-01-28T02:56:50.730Z,1024.09
2023-01-28T02:57:04.720Z,1024.09
2023-01-28T02:57:18.698Z,1024.09
2023-01-28T02:57:32.698Z,1024.09
2023-01-28T02:57:46.717Z,1024.09